Flight Track Log - Related Links

Times and Time Zones

All times are in EDT time to prevent confusion due to time zone crossing. See the UAL906 flight status page for this flight to view local times or setup timezone preferences in your user account.

Time Position Orientation Groundspeed Altitude Reporting Facility
EDT Latitude Longitude Course Direction KTS MPH feet Rate Location/Type
Sat 06:56:00 AM 50.0260 8.4990 270° West 178 205 2,200  Level FlightAware ADS-B
Sat 06:56:16 AM 50.0270 8.4810 275° West 184 212 2,700 2,049 Climbing FlightAware ADS-B
Sat 06:56:41 AM 50.0300 8.4460 278° West 180 207 3,600 1,418 Climbing FlightAware ADS-B
Sat 06:57:11 AM 50.0260 8.4060 261° West 213 245 4,000 1,053 Climbing FlightAware ADS-B
Sat 06:57:38 AM 50.0200 8.3600 259° West 240 276 4,600 955 Climbing FlightAware ADS-B
Sat 06:57:55 AM 50.0170 8.3330 260° West 263 303 4,700 1,091 Climbing FlightAware ADS-B
Sat 06:58:33 AM 50.0160 8.2660 269° West 295 339 5,600 1,929 Climbing FlightAware ADS-B
Sat 06:58:51 AM 50.0290 8.2180 293° West 308 354 6,500 2,625 Climbing FlightAware ADS-B
Sat 06:59:21 AM 50.0490 8.1550 296° West 314 361 7,700 2,291 Climbing FlightAware ADS-B
Sat 06:59:46 AM 50.0660 8.1060 298° West 325 374 8,600 1,971 Climbing FlightAware ADS-B
Sat 07:00:31 AM 50.1090 8.0200 308° West 324 373 10,000 1,313 Climbing FlightAware ADS-B
Sat 07:01:22 AM 50.1540 7.9360 310° West 341 392 10,700 1,592 Climbing FlightAware ADS-B
Sat 07:02:09 AM 50.2050 7.8370 309° West 347 399 12,600 2,169 Climbing FlightAware ADS-B
Sat 07:02:45 AM 50.2380 7.7720 308° West 351 404 13,700 1,870 Climbing FlightAware ADS-B
Sat 07:03:26 AM 50.2970 7.7020 323° Northwest 384 442 15,000 1,793 Climbing FlightAware ADS-B
Sat 07:04:12 AM 50.3720 7.6560 339° North 395 455 16,300 1,395 Climbing FlightAware ADS-B
Sat 07:04:52 AM 50.4390 7.6110 337° Northwest 409 471 17,000 1,333 Climbing FlightAware ADS-B
Sat 07:05:51 AM 50.5220 7.5540 336° Northwest 409 471 18,500 1,705 Climbing FlightAware ADS-B
Sat 07:06:27 AM 50.6060 7.4810 331° Northwest 406 467 19,700 1,655 Climbing FlightAware ADS-B
Sat 07:07:18 AM 50.6860 7.3980 327° Northwest 406 467 20,900 1,780 Climbing FlightAware ADS-B
Sat 07:07:58 AM 50.7490 7.3340 327° Northwest 401 461 22,400 1,875 Climbing FlightAware ADS-B
Sat 07:08:38 AM 50.8110 7.2690 326° Northwest 394 453 23,400 1,500 Climbing FlightAware ADS-B
Sat 07:09:18 AM 50.8630 7.1940 318° Northwest 377 434 24,400 1,271 Climbing FlightAware ADS-B
Sat 07:10:03 AM 50.9060 7.0910 304° West 379 436 25,200 933 Climbing FlightAware ADS-B
Sat 07:10:48 AM 50.9510 6.9760 302° West 397 457 25,800 936 Climbing FlightAware ADS-B
Sat 07:11:52 AM 51.0130 6.8170 302° West 407 468 26,900 1,154 Climbing FlightAware ADS-B
Sat 07:12:32 AM 51.0530 6.7160 302° West 412 474 27,800 1,133 Climbing FlightAware ADS-B
Sat 07:13:22 AM 51.1160 6.5960 310° West 426 490 28,600 918 Climbing FlightAware ADS-B
Sat 07:13:57 AM 51.1590 6.5170 311° West 432 497 29,100 900 Climbing FlightAware ADS-B
Sat 07:14:42 AM 51.2190 6.4080 311° West 436 502 29,800 918 Climbing FlightAware ADS-B
Sat 07:15:22 AM 51.2750 6.3070 312° West 440 506 30,400 857 Climbing FlightAware ADS-B
Sat 07:16:06 AM 51.3340 6.1990 311° West 445 512 31,000 1,133 Climbing FlightAware ADS-B
Sat 07:16:52 AM 51.3960 6.0850 311° West 437 503 32,100 1,256 Climbing FlightAware ADS-B
Sat 07:17:32 AM 51.4480 5.9870 310° West 433 498 32,800 1,000 Climbing FlightAware ADS-B
Sat 07:18:10 AM 51.4980 5.8960 311° West 433 498 33,400 857 Climbing FlightAware ADS-B
Sat 07:18:56 AM 51.5570 5.7840 310° West 433 498 34,000 419 Climbing FlightAware ADS-B
Sat 07:19:36 AM 51.6100 5.6860 311° West 433 498 34,000  Level FlightAware ADS-B
Sat 07:20:34 AM 51.6850 5.5440 310° West 433 498 34,000  Level FlightAware ADS-B
Sat 07:21:14 AM 51.7315 5.4428 310° West 486 559 34,000  Level FlightAware UK
Sat 07:21:14 AM 51.7360 5.4470 310° West 432 497 34,000 -200 Level FlightAware ADS-B
Sat 07:21:44 AM 51.7726 5.3714 310° West 486 559 33,900  Descending FlightAware UK
Sat 07:21:56 AM 51.7910 5.3430 310° West 429 494 34,000 136 Climbing FlightAware ADS-B
Sat 07:22:28 AM 51.8320 5.2650 310° West 427 491 34,000  Level FlightAware ADS-B
Sat 07:22:44 AM 51.8525 5.2274 310° West 482 555 34,000  Level FlightAware UK
Sat 07:23:08 AM 51.8830 5.1680 310° West 427 491 34,000  Level FlightAware ADS-B
Sat 07:23:26 AM 51.9057 5.1246 310° West 480 552 34,000  Level FlightAware UK
Sat 07:23:49 AM 51.9350 5.0680 310° West 428 493 34,000  Level FlightAware ADS-B
Sat 07:24:33 AM 51.9910 4.9600 310° West 427 491 34,000 -76 Level FlightAware ADS-B
Sat 07:25:08 AM 52.0342 4.8741 310° West 482 555 33,900  Descending FlightAware UK
Sat 07:25:13 AM 52.0420 4.8630 310° West 427 491 34,000 167 Climbing FlightAware ADS-B
Sat 07:25:44 AM 52.0802 4.7862 310° West 484 557 34,000  Level FlightAware UK
Sat 07:25:56 AM 52.0960 4.7580 310° West 425 489 34,000  Level FlightAware ADS-B
Sat 07:26:38 AM 52.1487 4.6541 310° West 484 557 34,000  Level FlightAware UK
Sat 07:26:38 AM 52.1480 4.6560 310° West 425 489 34,000  Level FlightAware ADS-B
Sat 07:27:17 AM 52.1960 4.5620 310° West 423 487 34,000 -143 Level FlightAware ADS-B
Sat 07:27:20 AM 52.2024 4.5520 310° West 484 557 33,900  Descending FlightAware UK
Sat 07:28:04 AM 52.2530 4.4490 310° West 422 486 34,000 72 Climbing FlightAware ADS-B
Sat 07:28:43 AM 52.3030 4.3500 310° West 420 483 34,000  Level FlightAware ADS-B
Sat 07:29:28 AM 52.3580 4.2410 310° West 420 483 34,000 -71 Level FlightAware ADS-B
Sat 07:30:07 AM 52.4094 4.1410 310° West 486 559 33,900  Descending FlightAware UK
Sat 07:30:07 AM 52.4030 4.1520 310° West 418 481 34,000  Climbing FlightAware ADS-B
Sat 07:30:55 AM 52.4681 4.0239 310° West 482 555 33,900  Descending FlightAware UK
Sat 07:31:02 AM 52.4720 4.0150 310° West 417 480 34,000 120 Climbing FlightAware ADS-B
Sat 07:31:45 AM 52.5260 3.9060 309° West 420 483 34,000  Level FlightAware ADS-B
Sat 07:32:37 AM 52.5926 3.7730 309° West 484 557 34,000  Level FlightAware UK
Sat 07:32:43 AM 52.5980 3.7620 309° West 420 483 34,000 -200 Level FlightAware ADS-B
Sat 07:33:07 AM 52.6291 3.6984 309° West 478 550 33,900  Descending FlightAware UK
Sat 07:33:24 AM 52.6470 3.6620 309° West 425 489 34,000 100 Climbing FlightAware ADS-B
Sat 07:34:07 AM 52.7031 3.5475 309° West 480 552 34,000  Level FlightAware UK
Sat 07:34:08 AM 52.7030 3.5480 309° West 431 496 34,000 -167 Level FlightAware ADS-B
Sat 07:34:43 AM 52.7485 3.4546 309° West 482 555 33,900  Descending FlightAware UK
Sat 07:34:47 AM 52.7510 3.4500 309° West 435 501 34,000 133 Climbing FlightAware ADS-B
Sat 07:35:28 AM 52.8040 3.3410 309° West 440 506 34,000  Level FlightAware ADS-B
Sat 07:36:13 AM 52.8620 3.2210 309° West 442 509 34,000 -80 Level FlightAware ADS-B
Sat 07:36:43 AM 52.9011 3.1411 309° West 484 557 33,900  Descending FlightAware UK
Sat 07:36:53 AM 52.9120 3.1170 309° West 437 503 34,000  Climbing FlightAware ADS-B
Sat 07:37:19 AM 52.9464 3.0470 309° West 484 557 33,900  Descending FlightAware UK
Sat 07:37:37 AM 52.9660 3.0040 309° West 440 506 34,000 97 Climbing FlightAware ADS-B
Sat 07:38:21 AM 53.0230 2.8850 309° West 443 510 34,000  Level FlightAware ADS-B
Sat 07:38:55 AM 53.0673 2.7924 309° West 488 562 34,000  Level FlightAware UK
Sat 07:39:00 AM 53.0730 2.7810 309° West 444 511 34,000  Level FlightAware ADS-B
Sat 07:39:31 AM 53.1132 2.6955 309° West 488 562 34,000  Level FlightAware UK
Sat 07:39:41 AM 53.1260 2.6700 309° West 447 514 34,000  Level FlightAware ADS-B
Sat 07:40:13 AM 53.1667 2.5823 309° West 492 566 34,000  Level FlightAware UK
Sat 07:40:25 AM 53.1820 2.5500 309° West 449 517 34,000  Level FlightAware ADS-B
Sat 07:40:43 AM 53.2048 2.5001 309° West 492 566 34,000  Level FlightAware UK
Sat 07:41:07 AM 53.2320 2.4320 309° West 446 513 34,000  Level FlightAware ADS-B
Sat 07:41:48 AM 53.2760 2.3160 302° West 447 514 34,000  Level FlightAware ADS-B
Sat 07:42:29 AM 53.3220 2.1930 302° West 448 516 34,000  Level FlightAware ADS-B
Sat 07:43:07 AM 53.3643 2.0805 302° West 492 566 34,000  Level FlightAware UK
Sat 07:43:13 AM 53.3690 2.0690 302° West 451 519 34,000  Level FlightAware ADS-B
Sat 07:43:53 AM 53.4150 1.9460 302° West 452 520 34,000  Level FlightAware ADS-B
Sat 07:44:37 AM 53.4637 1.8144 302° West 492 566 34,000  Level FlightAware UK
Sat 07:44:37 AM 53.4630 1.8160 302° West 452 520 34,000  Level FlightAware ADS-B
Sat 07:45:21 AM 53.5110 1.6870 302° West 454 522 34,000  Level FlightAware ADS-B
Sat 07:45:37 AM 53.5298 1.6363 302° West 492 566 34,000  Level FlightAware UK
Sat 07:46:03 AM 53.5560 1.5650 302° West 456 525 34,000  Level FlightAware ADS-B
Sat 07:46:43 AM 53.6020 1.4400 302° West 457 526 34,000  Level FlightAware ADS-B
Sat 07:47:00 AM 53.6224 1.3838 302° West 494 568 34,000  Level FlightAware UK
Sat 07:47:22 AM 53.6350 1.3510 302° West 457 526 34,000  Level FlightAware ADS-B
Sat 07:48:03 AM 53.6910 1.1970 302° West 459 528 34,000  Level FlightAware ADS-B
Sat 07:48:18 AM 53.7086 1.1477 302° West 498 573 34,000  Level FlightAware UK
Sat 07:48:50 AM 53.7420 1.0560 302° West 459 528 34,000  Level FlightAware ADS-B
Sat 07:49:26 AM 53.7740 0.9650 301° West 459 528 34,000  Level FlightAware ADS-B
Sat 07:49:54 AM 53.8139 0.8545 301° West 492 566 34,000  Level FlightAware UK
Sat 07:50:05 AM 53.8240 0.8270 301° West 460 529 34,000  Level FlightAware ADS-B
Sat 07:50:42 AM 53.8665 0.7073 301° West 490 564 34,000  Level FlightAware UK
Sat 07:50:53 AM 53.8760 0.6820 301° West 462 532 34,000  Level FlightAware ADS-B
Sat 07:51:17 AM 53.9045 0.6006 301° West 462 532 34,000  Level FlightAware ADS-B
Sat 07:51:48 AM 53.9391 0.5025 301° West 492 566 34,000 95 Level FlightAware UK
Sat 07:52:20 AM 53.9740 0.4030 301° West 467 537 34,100 333 Climbing FlightAware ADS-B
Sat 07:52:42 AM 53.9981 0.3336 301° West 492 566 34,300 585 Climbing FlightAware UK
Sat 07:53:01 AM 54.0180 0.2760 301° West 466 536 34,500 500 Climbing FlightAware ADS-B
Sat 07:53:18 AM 54.0371 0.2197 301° West 490 564 34,600 429 Climbing FlightAware UK
Sat 07:53:43 AM 54.0630 0.1440 301° West 468 539 34,800 453 Climbing FlightAware ADS-B
Sat 07:54:11 AM 54.0952 0.0488 301° West 492 566 35,000 429 Climbing FlightAware UK
Sat 07:54:25 AM 54.1090 0.0080 301° West 471 542 35,100 400 Climbing FlightAware ADS-B
Sat 07:54:41 AM 54.1278 -0.0475 301° West 494 568 35,200 439 Climbing FlightAware UK
Sat 07:55:06 AM 54.1570 -0.1230 301° West 474 545 35,400 353 Climbing FlightAware ADS-B
Sat 07:55:49 AM 54.2120 -0.2510 306° West 475 547 35,600 276 Climbing FlightAware ADS-B
Sat 07:56:33 AM 54.2710 -0.3850 307° West 480 552 35,800 286 Climbing FlightAware ADS-B
Sat 07:57:13 AM 54.3210 -0.4980 307° West 479 551 36,000 214 Climbing FlightAware ADS-B
Sat 07:57:29 AM 54.3458 -0.5559 307° West 492 566 36,000  Level FlightAware UK
Sat 07:57:54 AM 54.3770 -0.6270 307° West 480 552 36,000  Level FlightAware ADS-B
Sat 07:58:23 AM 54.4172 -0.7199 307° West 494 568 36,000  Level FlightAware UK
Sat 07:58:38 AM 54.4350 -0.7620 307° West 482 555 36,000  Level FlightAware ADS-B
Sat 07:59:18 AM 54.4890 -0.8850 307° West 480 552 36,000  Level FlightAware ADS-B
Sat 07:59:53 AM 54.5357 -0.9954 307° West 492 566 36,000  Level FlightAware UK
Sat 08:00:02 AM 54.5460 -1.0190 307° West 481 554 36,000  Level FlightAware ADS-B
Sat 08:00:35 AM 54.5909 -1.1247 307° West 490 564 36,000  Level FlightAware UK
Sat 08:00:42 AM 54.5980 -1.1410 307° West 482 555 36,000  Level FlightAware ADS-B
Sat 08:01:16 AM 54.6459 -1.2538 307° West 492 566 36,000  Level FlightAware UK
Sat 08:01:24 AM 54.6530 -1.2710 307° West 483 556 36,000  Level FlightAware ADS-B
Sat 08:01:46 AM 54.6855 -1.3469 307° West 492 566 36,000  Level FlightAware UK
Sat 08:02:05 AM 54.7090 -1.4030 307° West 484 557 36,000  Level FlightAware ADS-B
Sat 08:02:46 AM 54.7642 -1.5343 307° West 492 566 36,000  Level FlightAware UK
Sat 08:02:46 AM 54.7620 -1.5280 307° West 484 557 36,000  Level FlightAware ADS-B
Sat 08:03:28 AM 54.8190 -1.6653 307° West 494 568 36,000  Level FlightAware UK
Sat 08:03:31 AM 54.8190 -1.6660 307° West 484 557 36,000  Level FlightAware ADS-B
Sat 08:03:58 AM 54.8539 -1.7643 307° West 496 571 36,000  Level FlightAware UK
Sat 08:04:12 AM 54.8670 -1.8030 307° West 483 556 36,000  Level FlightAware ADS-B
Sat 08:04:28 AM 54.8867 -1.8655 307° West 496 571 36,000  Level FlightAware UK
Sat 08:04:54 AM 54.9120 -1.9470 307° West 482 555 36,000  Level FlightAware ADS-B
Sat 08:05:16 AM 54.9371 -2.0280 307° West 494 568 36,000  Level FlightAware UK
Sat 08:05:34 AM 54.9420 -2.0430 307° West 481 554 36,000  Level FlightAware ADS-B
Sat 08:05:58 AM 54.9807 -2.1714 307° West 494 568 36,000  Level FlightAware UK
Sat 08:06:13 AM 54.9830 -2.1790 307° West 482 555 36,000  Level FlightAware ADS-B
Sat 08:06:34 AM 55.0181 -2.2947 307° West 496 571 36,000  Level FlightAware UK
Sat 08:06:57 AM 55.0410 -2.3710 307° West 482 555 36,000 -91 Level FlightAware ADS-B
Sat 08:07:40 AM 55.0858 -2.5207 307° West 496 571 35,900  Descending FlightAware UK
Sat 08:07:42 AM 55.0860 -2.5200 307° West 481 554 36,000  Climbing FlightAware ADS-B
Sat 08:08:22 AM 55.1285 -2.6645 307° West 496 571 35,900  Descending FlightAware UK
Sat 08:08:27 AM 55.1330 -2.6810 307° West 480 552 36,000  Climbing FlightAware ADS-B
Sat 08:08:58 AM 55.1653 -2.7883 307° West 494 568 35,900  Descending FlightAware UK
Sat 08:09:07 AM 55.1730 -2.8150 307° West 481 554 36,000 120 Climbing FlightAware ADS-B
Sat 08:09:48 AM 55.2140 -2.9530 298° West 481 554 36,000 -81 Level FlightAware ADS-B
Sat 08:10:21 AM 55.2502 -3.0776 298° West 492 566 35,900  Descending FlightAware UK
Sat 08:10:34 AM 55.2580 -3.1030 298° West 481 554 36,000 143 Climbing FlightAware ADS-B
Sat 08:11:03 AM 55.2926 -3.2222 298° West 490 564 36,000  Level FlightAware UK
Sat 08:11:39 AM 55.3289 -3.3470 297° West 492 566 36,000  Level FlightAware UK
Sat 08:11:42 AM 55.3300 -3.3520 297° West 480 552 36,000 -200 Level FlightAware ADS-B
Sat 08:12:09 AM 55.3589 -3.4514 297° West 492 566 35,900  Descending FlightAware UK
Sat 08:12:22 AM 55.3710 -3.4940 297° West 481 554 36,000 200 Climbing FlightAware ADS-B
Sat 08:12:39 AM 55.3887 -3.5559 297° West 494 568 36,000  Level FlightAware UK
Sat 08:13:02 AM 55.4100 -3.6310 297° West 481 554 36,000  Level FlightAware ADS-B
Sat 08:13:39 AM 55.4487 -3.7651 297° West 494 568 36,000  Level FlightAware UK
Sat 08:13:44 AM 55.4520 -3.7750 297° West 482 555 36,000  Level FlightAware ADS-B
Sat 08:14:38 AM 55.4800 -3.8740 297° West 481 554 36,000 -109 Level FlightAware ADS-B
Sat 08:14:39 AM 55.5083 -3.9753 297° West 492 566 35,900 -194 Descending FlightAware UK
Sat 08:15:09 AM 55.5380 -4.0802 297° West 494 568 35,900 125 Level FlightAware UK
Sat 08:15:27 AM 55.5470 -4.1160 297° West 480 552 36,000  Climbing FlightAware ADS-B
Sat 08:15:51 AM 55.5791 -4.2267 297° West 494 568 35,900  Descending FlightAware UK
Sat 08:16:14 AM 55.6010 -4.3040 297° West 480 552 36,000 143 Climbing FlightAware ADS-B
Sat 08:16:33 AM 55.6202 -4.3742 297° West 496 571 36,000  Level FlightAware UK
Sat 08:17:00 AM 55.6440 -4.4620 297° West 479 551 36,000 -77 Level FlightAware ADS-B
Sat 08:17:51 AM 55.6960 -4.6488 297° West 494 568 35,900  Descending FlightAware UK
Sat 08:17:58 AM 55.6990 -4.6610 297° West 479 551 36,000  Climbing FlightAware ADS-B
Sat 08:18:21 AM 55.7248 -4.7544 297° West 494 568 35,900  Descending FlightAware UK
Sat 08:18:38 AM 55.7370 -4.7990 297° West 479 551 36,000 103 Climbing FlightAware ADS-B
Sat 08:19:19 AM 55.7780 -4.9480 296° West 479 551 36,000  Level FlightAware ADS-B
Sat 08:20:00 AM 55.8150 -5.0880 295° West 479 551 36,000 -70 Level FlightAware ADS-B
Sat 08:20:45 AM 55.8621 -5.2624 295° West 494 568 35,900  Descending FlightAware UK
Sat 08:20:45 AM 55.8600 -5.2550 295° West 478 550 36,000  Climbing FlightAware ADS-B
Sat 08:21:15 AM 55.8904 -5.3688 295° West 492 566 35,900  Descending FlightAware UK
Sat 08:21:22 AM 55.8950 -5.3850 295° West 477 549 36,000  Climbing FlightAware ADS-B
Sat 08:21:45 AM 55.9187 -5.4750 295° West 490 564 35,900  Descending FlightAware UK
Sat 08:22:08 AM 55.9380 -5.5490 295° West 477 549 36,000  Climbing FlightAware ADS-B
Sat 08:22:27 AM 55.9579 -5.6241 295° West 490 564 35,900  Descending FlightAware UK
Sat 08:22:52 AM 55.9800 -5.7100 295° West 474 545 36,000  Climbing FlightAware ADS-B
Sat 08:23:33 AM 56.0193 -5.8593 295° West 492 566 35,900  Descending FlightAware UK
Sat 08:23:36 AM 56.0220 -5.8700 295° West 474 545 36,000  Climbing FlightAware ADS-B
Sat 08:24:03 AM 56.0472 -5.9664 295° West 492 566 35,900  Descending FlightAware UK
Sat 08:24:11 AM 56.0540 -5.9910 295° West 473 544 36,000  Climbing FlightAware ADS-B
Sat 08:24:33 AM 56.0749 -6.0735 295° West 492 566 35,900  Descending FlightAware UK
Sat 08:24:56 AM 56.0960 -6.1550 295° West 474 545 36,000  Climbing FlightAware ADS-B
Sat 08:25:39 AM 56.1352 -6.3093 295° West 492 566 35,900  Descending FlightAware UK
Sat 08:25:51 AM 56.1450 -6.3480 295° West 477 549 36,000 200 Climbing FlightAware ADS-B
Sat 08:26:09 AM 56.1625 -6.4172 295° West 492 566 36,000  Level FlightAware UK
Sat 08:26:38 AM 56.1860 -6.5110 295° West 477 549 36,000  Level FlightAware ADS-B
Sat 08:27:09 AM 56.2172 -6.6333 295° West 492 566 36,000  Level FlightAware UK
Sat 08:27:16 AM 56.2240 -6.6590 295° West 478 550 36,000  Level FlightAware ADS-B
Sat 08:27:39 AM 56.2443 -6.7418 295° West 492 566 36,000 -113 Level FlightAware UK
Sat 08:28:09 AM 56.2714 -6.8501 294° West 488 562 35,900  Descending FlightAware UK
Sat 08:28:12 AM 56.2730 -6.8560 294° West 478 550 36,000  Climbing FlightAware ADS-B
Sat 08:28:39 AM 56.2983 -6.9586 294° West 488 562 35,900  Descending FlightAware UK
Sat 08:28:52 AM 56.3050 -6.9880 294° West 479 551 36,000 200 Climbing FlightAware ADS-B
Sat 08:29:09 AM 56.3250 -7.0676 294° West 490 564 36,000 -128 Level FlightAware UK
Sat 08:29:39 AM 56.3521 -7.1768 294° West 490 564 35,900  Descending FlightAware UK
Sat 08:29:48 AM 56.3600 -7.2110 294° West 480 552 36,000 200 Climbing FlightAware ADS-B
Sat 08:30:09 AM 56.3787 -7.2866 294° West 490 564 36,000  Level FlightAware UK
Sat 08:30:33 AM 56.4000 -7.3740 294° West 481 554 36,000  Level FlightAware ADS-B
Sat 08:31:09 AM 56.4323 -7.5070 294° West 488 562 36,000  Level FlightAware UK
Sat 08:31:14 AM 56.4350 -7.5200 294° West 481 554 36,000 -171 Level FlightAware ADS-B
Sat 08:31:44 AM 56.4641 -7.6389 294° West 488 562 35,900  Descending FlightAware UK
Sat 08:31:58 AM 56.4760 -7.6890 294° West 482 555 36,000 200 Climbing FlightAware ADS-B
Sat 08:32:14 AM 56.4906 -7.7498 294° West 488 562 36,000  Level FlightAware UK
Sat 08:32:39 AM 56.5120 -7.8400 294° West 483 556 36,000 -100 Level FlightAware ADS-B
Sat 08:33:14 AM 56.5435 -7.9724 294° West 488 562 35,900  Descending FlightAware UK
Sat 08:33:16 AM 56.5440 -7.9740 294° West 485 558 36,000  Climbing FlightAware ADS-B
Sat 08:33:44 AM 56.5698 -8.0843 294° West 488 562 35,900  Descending FlightAware UK
Sat 08:34:06 AM 56.5880 -8.1630 294° West 482 555 36,000  Climbing FlightAware ADS-B
Sat 08:34:44 AM 56.6225 -8.3088 294° West 492 566 35,900  Descending FlightAware UK
Sat 08:34:46 AM 56.6220 -8.3100 294° West 483 556 36,000  Climbing FlightAware ADS-B
Sat 08:35:14 AM 56.6486 -8.4215 294° West 492 566 35,900 -103 Descending FlightAware UK
Sat 08:35:44 AM 56.6745 -8.5346 293° West 490 564 35,900 140 Level FlightAware UK
Sat 08:35:57 AM 56.6570 -8.4600 293° West 483 556 36,000 200 Climbing FlightAware ADS-B
Sat 08:36:14 AM 56.7005 -8.6478 293° West 492 566 36,000  Level FlightAware UK
Sat 08:36:41 AM 56.7220 -8.7410 293° West 485 558 36,000  Level FlightAware ADS-B
Sat 08:36:44 AM 56.7263 -8.7612 293° West 492 566 36,000 -182 Level FlightAware UK
Sat 08:37:14 AM 56.7523 -8.8746 293° West 494 568 35,900  Descending FlightAware UK
Sat 08:37:26 AM 56.7620 -8.9190 293° West 484 557 36,000 167 Climbing FlightAware ADS-B
Sat 08:37:50 AM 56.7829 -9.0103 293° West 496 571 36,000  Level FlightAware UK
Sat 08:38:21 AM 56.7870 -9.0280 293° West 483 556 36,000  Level FlightAware ADS-B
Sat 08:39:01 AM 56.8410 -9.2730 292° West 485 558 36,000  Level FlightAware ADS-B
Sat 08:39:41 AM 56.8750 -9.4250 292° West 485 558 36,000  Level FlightAware ADS-B
Sat 08:40:36 AM 56.9110 -9.5900 292° West 484 557 36,000  Level FlightAware ADS-B
Sat 08:41:22 AM 56.9590 -9.8100 292° West 487 560 36,000  Level FlightAware ADS-B
Sat 08:42:07 AM 56.9950 -9.9720 292° West 484 557 36,000  Level FlightAware ADS-B
Sat 08:42:48 AM 57.0330 -10.1310 294° West 484 557 36,000  Level FlightAware ADS-B
Sat 08:43:32 AM 57.0840 -10.2890 301° West 480 552 36,000  Level FlightAware ADS-B
Sat 08:44:07 AM 57.1290 -10.4040 306° West 485 558 36,000  Level FlightAware ADS-B
Sat 08:44:47 AM 57.1720 -10.5510 298° West 481 554 36,000  Level FlightAware ADS-B
Sat 08:45:54 AM 57.2240 -10.7540 295° West 483 556 36,000  Level FlightAware ADS-B
Sat 08:46:39 AM 57.2750 -10.9640 294° West 485 558 36,000  Level FlightAware ADS-B
Sat 08:47:22 AM 57.3170 -11.1390 294° West 485 558 36,000  Level FlightAware ADS-B
Sat 08:48:02 AM 57.3520 -11.2870 294° West 486 559 36,000  Level FlightAware ADS-B
Sat 08:48:47 AM 57.3930 -11.4590 294° West 485 558 36,000  Level FlightAware ADS-B
Sat 08:49:28 AM 57.4290 -11.6110 294° West 486 559 36,000  Level FlightAware ADS-B
Sat 08:50:17 AM 57.4660 -11.7720 293° West 486 559 36,000  Level FlightAware ADS-B
Sat 08:51:03 AM 57.5140 -11.9810 293° West 486 559 36,000  Level FlightAware ADS-B
Sat 08:51:43 AM 57.5470 -12.1220 294° West 487 560 36,000  Level FlightAware ADS-B
Sat 08:52:44 AM 57.5920 -12.3220 293° West 487 560 36,000  Level FlightAware ADS-B
Sat 08:53:21 AM 57.6200 -12.4440 293° West 487 560 36,000  Level FlightAware ADS-B
Sat 08:54:08 AM 57.6550 -12.5990 293° West 487 560 36,000  Level FlightAware ADS-B
Sat 08:54:45 AM 57.6830 -12.7210 293° West 487 560 36,000  Level FlightAware ADS-B
Sat 08:55:53 AM 57.7340 -12.9450 293° West 487 560 36,000  Level FlightAware ADS-B
Sat 08:56:44 AM 57.7720 -13.1140 293° West 487 560 36,000  Level FlightAware ADS-B
Sat 08:57:26 AM 57.8030 -13.2530 293° West 487 560 36,000  Level FlightAware ADS-B
Sat 08:58:03 AM 57.8310 -13.3750 293° West 487 560 36,000  Level FlightAware ADS-B
Sat 08:59:04 AM 57.8760 -13.5770 293° West 487 560 36,000  Level FlightAware ADS-B
Sat 08:59:42 AM 57.9050 -13.7030 293° West 487 560 36,000  Level FlightAware ADS-B
Sat 09:00:19 AM 57.9330 -13.8260 293° West 487 560 36,000  Level FlightAware ADS-B
Sat 09:01:07 AM 57.9680 -13.9850 293° West 487 560 36,000  Level FlightAware ADS-B
Sat 09:03:00 AM 58.0506 -14.4009 291° West  Level FlightAware Approximate
Sat 09:04:00 AM 58.0939 -14.6225 290° West  Level FlightAware Approximate
Sat 09:05:00 AM 58.1368 -14.8446 290° West  Level FlightAware Approximate
Sat 09:06:00 AM 58.1793 -15.0673 290° West  Level FlightAware Approximate
Sat 09:07:00 AM 58.2214 -15.2905 290° West  Level FlightAware Approximate
Sat 09:08:00 AM 58.2631 -15.5143 290° West  Level FlightAware Approximate
Sat 09:09:00 AM 58.3045 -15.7385 289° West  Level FlightAware Approximate
Sat 09:10:00 AM 58.3455 -15.9633 289° West  Level FlightAware Approximate
Sat 09:11:00 AM 58.3860 -16.1886 289° West  Level FlightAware Approximate
Sat 09:12:00 AM 58.4262 -16.4144 289° West  Level FlightAware Approximate
Sat 09:13:00 AM 58.4659 -16.6408 289° West  Level FlightAware Approximate
Sat 09:14:00 AM 58.5053 -16.8676 288° West  Level FlightAware Approximate
Sat 09:15:00 AM 58.5443 -17.0949 288° West  Level FlightAware Approximate
Sat 09:16:00 AM 58.5828 -17.3228 288° West  Level FlightAware Approximate
Sat 09:17:00 AM 58.6210 -17.5511 288° West  Level FlightAware Approximate
Sat 09:18:00 AM 58.6587 -17.7800 288° West  Level FlightAware Approximate
Sat 09:19:00 AM 58.6961 -18.0093 287° West  Level FlightAware Approximate
Sat 09:20:00 AM 58.7330 -18.2392 287° West  Level FlightAware Approximate
Sat 09:21:00 AM 58.7695 -18.4695 287° West  Level FlightAware Approximate
Sat 09:22:00 AM 58.8056 -18.7003 287° West  Level FlightAware Approximate
Sat 09:23:00 AM 58.8413 -18.9316 287° West  Level FlightAware Approximate
Sat 09:24:00 AM 58.8766 -19.1633 287° West  Level FlightAware Approximate
Sat 09:24:00 AM 59.0000 -20.0000 274° West 500 575 36,000  Level ETMS Enhanced Traffic Management System
Sat 09:25:00 AM 58.9115 -19.3955 286° West  Level FlightAware Approximate
Sat 09:26:00 AM 58.9460 -19.6282 286° West  Level FlightAware Approximate
Sat 09:27:00 AM 58.9800 -19.8614 286° West  Level FlightAware Approximate
Sat 09:28:00 AM 59.0037 -20.0978 274° West  Level FlightAware Approximate
Sat 09:29:00 AM 59.0127 -20.3398 274° West  Level FlightAware Approximate
Sat 09:30:00 AM 59.0523 -21.6182 273° West 500 575 36,000  Level FlightAware Transoceanic
Sat 09:31:00 AM 59.0591 -21.8883 273° West 500 575 36,000  Level FlightAware Transoceanic
Sat 09:32:00 AM 59.0653 -22.1586 272° West 500 575 36,000  Level FlightAware Transoceanic
Sat 09:33:00 AM 59.0709 -22.4289 272° West 500 575 36,000  Level FlightAware Transoceanic
Sat 09:34:00 AM 59.0760 -22.6993 272° West 500 575 36,000  Level FlightAware Transoceanic
Sat 09:35:00 AM 59.0805 -22.9698 272° West 500 575 36,000  Level FlightAware Transoceanic
Sat 09:36:00 AM 59.0844 -23.2404 272° West 500 575 36,000  Level FlightAware Transoceanic
Sat 09:37:00 AM 59.0878 -23.5110 271° West 500 575 36,000  Level FlightAware Transoceanic
Sat 09:38:00 AM 59.0906 -23.7816 271° West 500 575 36,000  Level FlightAware Transoceanic
Sat 09:39:00 AM 59.0929 -24.0523 271° West 500 575 36,000  Level FlightAware Transoceanic
Sat 09:40:00 AM 59.0946 -24.3231 271° West 500 575 36,000  Level FlightAware Transoceanic
Sat 09:41:00 AM 59.0957 -24.5938 270° West 500 575 36,000  Level FlightAware Transoceanic
Sat 09:42:00 AM 59.0963 -24.8646 270° West 500 575 36,000  Level FlightAware Transoceanic
Sat 09:43:00 AM 59.0963 -25.1354 270° West 500 575 36,000  Level FlightAware Transoceanic
Sat 09:44:00 AM 59.0957 -25.4062 270° West 500 575 36,000  Level FlightAware Transoceanic
Sat 09:45:00 AM 59.0946 -25.6769 269° West 500 575 36,000  Level FlightAware Transoceanic
Sat 09:46:00 AM 59.0929 -25.9477 269° West 500 575 36,000  Level FlightAware Transoceanic
Sat 09:47:00 AM 59.0906 -26.2184 269° West 500 575 36,000  Level FlightAware Transoceanic
Sat 09:48:00 AM 59.0878 -26.4890 269° West 500 575 36,000  Level FlightAware Transoceanic
Sat 09:49:00 AM 59.0844 -26.7596 268° West 500 575 36,000  Level FlightAware Transoceanic
Sat 09:50:00 AM 59.0805 -27.0302 268° West 500 575 36,000  Level FlightAware Transoceanic
Sat 09:51:00 AM 59.0760 -27.3007 268° West 500 575 36,000  Level FlightAware Transoceanic
Sat 09:52:00 AM 59.0709 -27.5711 268° West 500 575 36,000  Level FlightAware Transoceanic
Sat 09:53:00 AM 59.0653 -27.8414 268° West 500 575 36,000  Level FlightAware Transoceanic
Sat 09:54:00 AM 59.0591 -28.1117 267° West 500 575 36,000  Level FlightAware Transoceanic
Sat 09:55:00 AM 59.0523 -28.3818 267° West 500 575 36,000  Level FlightAware Transoceanic
Sat 09:56:00 AM 59.0450 -28.6518 267° West 500 575 36,000  Level FlightAware Transoceanic
Sat 09:57:00 AM 59.0371 -28.9217 267° West 500 575 36,000  Level FlightAware Transoceanic
Sat 09:58:00 AM 59.0287 -29.1915 266° West 500 575 36,000  Level FlightAware Transoceanic
Sat 09:59:00 AM 59.0197 -29.4612 266° West 500 575 36,000  Level FlightAware Transoceanic
Sat 10:00:00 AM 59.0101 -29.7307 266° West 500 575 36,000  Level FlightAware Transoceanic
Sat 10:01:00 AM 59.0010 -29.9726 266° West  Level FlightAware Approximate
Sat 10:02:00 AM 58.9916 -30.2145 266° West  Level FlightAware Approximate
Sat 10:03:00 AM 59.0071 -30.1872 274° West  Level FlightAware Approximate
Sat 10:04:00 AM 59.0159 -30.4293 274° West  Level FlightAware Approximate
Sat 10:05:00 AM 59.0242 -30.6714 274° West  Level FlightAware Approximate
Sat 10:06:00 AM 59.0320 -30.9137 274° West  Level FlightAware Approximate
Sat 10:07:00 AM 59.0395 -31.1561 274° West  Level FlightAware Approximate
Sat 10:08:00 AM 59.0464 -31.3986 273° West  Level FlightAware Approximate
Sat 10:09:00 AM 59.0529 -31.6412 273° West  Level FlightAware Approximate
Sat 10:10:00 AM 59.0590 -31.8839 273° West  Level FlightAware Approximate
Sat 10:11:00 AM 59.0646 -32.1267 273° West  Level FlightAware Approximate
Sat 10:12:00 AM 59.0697 -32.3695 272° West  Level FlightAware Approximate
Sat 10:13:00 AM 59.0744 -32.6124 272° West  Level FlightAware Approximate
Sat 10:14:00 AM 59.0787 -32.8554 272° West  Level FlightAware Approximate
Sat 10:15:00 AM 59.0824 -33.0984 272° West  Level FlightAware Approximate
Sat 10:16:00 AM 59.0858 -33.3415 272° West  Level FlightAware Approximate
Sat 10:17:00 AM 59.0886 -33.5847 271° West  Level FlightAware Approximate
Sat 10:18:00 AM 59.0911 -33.8278 271° West  Level FlightAware Approximate
Sat 10:19:00 AM 59.0930 -34.0710 271° West  Level FlightAware Approximate
Sat 10:20:00 AM 59.0945 -34.3143 271° West  Level FlightAware Approximate
Sat 10:21:00 AM 59.0956 -34.5575 271° West  Level FlightAware Approximate
Sat 10:22:00 AM 59.0962 -34.8007 270° West  Level FlightAware Approximate
Sat 10:23:00 AM 59.0964 -35.0440 270° West  Level FlightAware Approximate
Sat 10:24:00 AM 59.0960 -35.2873 270° West  Level FlightAware Approximate
Sat 10:24:12 AM 59.1167 -35.7333 269° West 480 552 36,000  Level Gander Center
Sat 10:25:00 AM 59.0953 -35.5305 270° West  Level FlightAware Approximate
Sat 10:25:12 AM 59.1167 -35.9667 270° West 480 552 36,000  Level Gander Center
Sat 10:26:00 AM 59.0941 -35.7737 270° West  Level FlightAware Approximate
Sat 10:26:12 AM 59.1167 -36.2167 270° West 480 552 36,000  Level Gander Center
Sat 10:27:00 AM 59.0924 -36.0169 269° West  Level FlightAware Approximate
Sat 10:27:12 AM 59.1167 -36.4833 270° West 470 541 36,000  Level Gander Center
Sat 10:28:00 AM 59.0902 -36.2601 269° West  Level FlightAware Approximate
Sat 10:28:12 AM 59.1167 -36.7333 270° West 470 541 36,000  Level Gander Center
Sat 10:29:00 AM 59.0877 -36.5033 269° West  Level FlightAware Approximate
Sat 10:29:12 AM 59.1000 -36.9667 262° West 470 541 36,000  Level Gander Center
Sat 10:30:12 AM 59.1000 -37.2500 270° West 470 541 36,000  Level Gander Center
Sat 10:31:12 AM 59.1000 -37.4833 270° West 470 541 36,000  Level Gander Center
Sat 10:32:12 AM 59.0833 -37.7333 263° West 470 541 36,000  Level Gander Center
Sat 10:33:12 AM 59.0833 -38.0000 270° West 470 541 36,000  Level Gander Center
Sat 10:34:12 AM 59.0833 -38.2500 270° West 470 541 36,000  Level Gander Center
Sat 10:35:12 AM 59.0667 -38.4833 262° West 470 541 36,000  Level Gander Center
Sat 10:36:12 AM 59.0500 -38.7333 263° West 460 529 36,000  Level Gander Center
Sat 10:37:12 AM 59.0667 -38.9667 278° West 470 541 36,000  Level Gander Center
Sat 10:38:12 AM 59.0500 -39.2333 263° West 470 541 36,000  Level Gander Center
Sat 10:39:12 AM 59.0500 -39.4833 270° West 470 541 36,000  Level Gander Center
Sat 10:40:12 AM 59.0333 -39.7333 263° West 460 529 36,000  Level Gander Center
Sat 10:41:12 AM 59.0000 -39.9833 256° West 470 541 36,000  Level Gander Center
Sat 10:42:12 AM 58.9833 -40.1833 261° West 470 541 36,000  Level Gander Center
Sat 10:43:12 AM 58.9500 -40.4500 256° West 460 529 36,000  Level Gander Center
Sat 10:44:12 AM 58.9167 -40.6667 253° West 460 529 36,000  Level Gander Center
Sat 10:45:12 AM 58.8833 -40.8833 254° West 460 529 36,000  Level Gander Center
Sat 10:46:12 AM 58.8333 -41.1167 248° West 450 518 36,000  Level Gander Center
Sat 10:47:12 AM 58.7833 -41.3333 246° West 450 518 36,000  Level Gander Center
Sat 10:48:12 AM 58.7667 -41.5833 263° West 450 518 36,000  Level Gander Center
Sat 10:49:12 AM 58.7167 -41.8000 246° West 450 518 36,000  Level Gander Center
Sat 10:50:12 AM 58.6833 -42.0333 255° West 450 518 36,000  Level Gander Center
Sat 10:51:12 AM 58.6333 -42.2500 246° West 450 518 36,000  Level Gander Center
Sat 10:52:12 AM 58.6000 -42.5000 256° West 450 518 36,000  Level Gander Center
Sat 10:53:12 AM 58.5667 -42.7167 254° West 450 518 36,000  Level Gander Center
Sat 10:54:12 AM 58.5333 -42.9333 254° West 440 506 36,000  Level Gander Center
Sat 10:55:12 AM 58.4833 -43.1500 246° West 440 506 36,000  Level Gander Center
Sat 10:56:12 AM 58.4500 -43.3667 254° West 440 506 36,000  Level Gander Center
Sat 10:57:12 AM 58.4167 -43.5833 254° West 440 506 36,000  Level Gander Center
Sat 10:58:12 AM 58.3667 -43.8000 246° West 440 506 36,000  Level Gander Center
Sat 10:59:12 AM 58.3333 -44.0167 254° West 440 506 36,000  Level Gander Center
Sat 11:00:12 AM 58.3000 -44.2167 252° West 440 506 36,000  Level Gander Center
Sat 11:01:12 AM 58.2333 -44.4500 242° Southwest 440 506 36,000  Level Gander Center
Sat 11:02:12 AM 58.2000 -44.6500 253° West 440 506 36,000  Level Gander Center
Sat 11:03:12 AM 58.1500 -44.8667 246° West 440 506 36,000  Level Gander Center
Sat 11:04:12 AM 58.1167 -45.0833 254° West 440 506 36,000  Level Gander Center
Sat 11:05:12 AM 58.0667 -45.3000 247° West 440 506 36,000  Level Gander Center
Sat 11:06:12 AM 58.0333 -45.5333 255° West 440 506 36,000  Level Gander Center
Sat 11:07:12 AM 57.9833 -45.7500 247° West 440 506 36,000  Level Gander Center
Sat 11:08:12 AM 57.9500 -45.9500 253° West 440 506 36,000  Level Gander Center
Sat 11:09:12 AM 57.9000 -46.1667 247° West 440 506 36,000  Level Gander Center
Sat 11:10:12 AM 57.8667 -46.3833 254° West 440 506 36,000  Level Gander Center
Sat 11:11:12 AM 57.8167 -46.5833 245° Southwest 440 506 36,000  Level Gander Center
Sat 11:12:12 AM 57.7500 -46.8000 240° Southwest 440 506 36,000  Level Gander Center
Sat 11:13:12 AM 57.7167 -47.0000 253° West 440 506 36,000  Level Gander Center
Sat 11:14:12 AM 57.6667 -47.2167 247° West 440 506 36,000  Level Gander Center
Sat 11:15:12 AM 57.6167 -47.4167 245° Southwest 440 506 36,000  Level Gander Center
Sat 11:16:12 AM 57.5833 -47.6500 255° West 440 506 36,000  Level Gander Center
Sat 11:17:12 AM 57.5333 -47.8667 247° West 440 506 36,000  Level Gander Center
Sat 11:18:12 AM 57.4833 -48.0667 245° Southwest 440 506 36,000  Level Gander Center
Sat 11:19:12 AM 57.4333 -48.2667 245° Southwest 440 506 36,000  Level Gander Center
Sat 11:20:12 AM 57.4000 -48.4833 254° West 440 506 36,000  Level Gander Center
Sat 11:21:12 AM 57.3500 -48.6833 245° Southwest 440 506 36,000  Level Gander Center
Sat 11:22:12 AM 57.2833 -48.8833 238° Southwest 440 506 36,000  Level Gander Center
Sat 11:23:12 AM 57.2333 -49.1000 247° West 440 506 36,000  Level Gander Center
Sat 11:24:12 AM 57.1833 -49.3000 245° Southwest 440 506 36,000  Level Gander Center
Sat 11:25:12 AM 57.1333 -49.5000 245° Southwest 440 506 36,000  Level Gander Center
Sat 11:26:12 AM 57.0833 -49.7000 245° Southwest 440 506 36,000  Level Gander Center
Sat 11:27:12 AM 57.0333 -49.9000 245° Southwest 440 506 36,000  Level Gander Center
Sat 11:27:38 AM 57.0167 -50.0000 253° West 440 506 36,000  Level Gander Center
Sat 11:28:38 AM 56.9833 -50.2000 253° West 440 506 36,000  Level Gander Center
Sat 11:31:00 AM 56.8954 -50.5839 247° West  Level FlightAware Approximate
Sat 11:38:00 AM 56.5425 -52.0594 247° West  Level FlightAware Approximate
Sat 11:39:00 AM 56.4907 -52.2679 246° West  Level FlightAware Approximate
Sat 11:40:00 AM 56.4386 -52.4759 246° West  Level FlightAware Approximate
Sat 11:41:00 AM 56.3860 -52.6833 245° Southwest  Level FlightAware Approximate
Sat 11:42:00 AM 56.3332 -52.8901 245° Southwest  Level FlightAware Approximate
Sat 11:43:00 AM 56.2800 -53.0963 245° Southwest  Level FlightAware Approximate
Sat 11:44:00 AM 56.2264 -53.3020 245° Southwest  Level FlightAware Approximate
Sat 11:45:00 AM 56.1725 -53.5070 245° Southwest  Level FlightAware Approximate
Sat 11:46:00 AM 56.1183 -53.7116 245° Southwest  Level FlightAware Approximate
Sat 11:47:00 AM 56.0637 -53.9155 244° Southwest  Level FlightAware Approximate
Sat 11:48:00 AM 56.0088 -54.1188 244° Southwest  Level FlightAware Approximate
Sat 11:49:00 AM 55.9536 -54.3216 244° Southwest  Level FlightAware Approximate
Sat 11:50:00 AM 55.8979 -54.5242 244° Southwest  Level FlightAware Approximate
Sat 11:51:00 AM 55.8428 -54.7265 244° Southwest  Level FlightAware Approximate
Sat 11:52:00 AM 55.7873 -54.9282 244° Southwest  Level FlightAware Approximate
Sat 11:53:00 AM 55.7314 -55.1293 244° Southwest  Level FlightAware Approximate
Sat 11:54:00 AM 55.6753 -55.3298 244° Southwest  Level FlightAware Approximate
Sat 11:55:00 AM 55.6188 -55.5297 243° Southwest  Level FlightAware Approximate
Sat 11:56:00 AM 55.5620 -55.7291 243° Southwest  Level FlightAware Approximate
Sat 11:56:52 AM 55.7500 -56.1500 250° West 440 506 36,000  Level Gander Center
Sat 11:57:00 AM 55.5196 -55.9390 250° West  Level Estimated
Sat 11:57:52 AM 55.7000 -56.3333 244° Southwest 440 506 36,000  Level Gander Center
Sat 11:58:00 AM 55.4769 -56.1485 250° West  Level Estimated
Sat 11:58:52 AM 55.6667 -56.5500 255° West 450 518 36,000  Level Gander Center
Sat 11:59:00 AM 55.4337 -56.3576 250° West  Level Estimated
Sat 11:59:52 AM 55.6000 -56.7500 240° Southwest 450 518 36,000  Level Gander Center
Sat 12:00:00 PM 55.3903 -56.5661 250° West  Level Estimated
Sat 12:00:52 PM 55.5667 -56.9333 252° West 440 506 36,000  Level Gander Center
Sat 12:01:00 PM 55.3464 -56.7743 250° West  Level Estimated
Sat 12:01:52 PM 55.5167 -57.1500 248° West 440 506 36,000  Level Gander Center
Sat 12:02:00 PM 55.3023 -56.9817 250° West  Level Estimated
Sat 12:02:14 PM 55.5000 -57.2167 246° West 440 506 36,000  Level Gander Center
Sat 12:03:14 PM 55.4667 -57.4167 254° West 440 506 36,000  Level Gander Center
Sat 12:04:14 PM 55.4167 -57.6333 248° West 440 506 36,000  Level Gander Center
Sat 12:04:52 PM 55.3833 -57.7500 243° Southwest 450 518 36,000  Level Gander Center
Sat 12:05:14 PM 55.3667 -57.8500 254° West 450 518 36,000  Level Gander Center
Sat 12:05:52 PM 55.3333 -57.9667 243° Southwest 450 518 36,000  Level Gander Center
Sat 12:06:14 PM 55.3333 -58.0167 270° West 450 518 36,000  Level Gander Center
Sat 12:06:52 PM 55.3000 -58.1667 249° West 450 518 36,000  Level Gander Center
Sat 12:07:52 PM 55.2500 -58.3500 244° Southwest 450 518 36,000  Level Gander Center
Sat 12:08:14 PM 55.2167 -58.4333 235° Southwest 450 518 36,000  Level Gander Center
Sat 12:09:14 PM 55.1667 -58.6500 248° West 450 518 36,000  Level Gander Center
Sat 12:10:14 PM 55.1333 -58.8500 254° West 450 518 36,000  Level Gander Center
Sat 12:11:14 PM 55.0833 -59.0667 248° West 450 518 36,000  Level Gander Center
Sat 12:12:14 PM 55.0333 -59.2667 247° West 460 529 36,000  Level Gander Center
Sat 12:13:14 PM 54.9833 -59.4500 245° Southwest 460 529 36,000  Level Gander Center
Sat 12:14:14 PM 54.9167 -59.6833 244° Southwest 460 529 36,000  Level Gander Center
Sat 12:15:14 PM 54.8833 -59.8667 253° West 460 529 36,000  Level Gander Center
Sat 12:16:14 PM 54.8333 -60.1000 250° West 460 529 36,000  Level Gander Center
Sat 12:16:52 PM 54.8000 -60.2167 244° Southwest 460 529 36,000  Level Gander Center
Sat 12:17:52 PM 54.7500 -60.4167 247° West 460 529 36,000 220 Level Gander Center
Sat 12:18:14 PM 54.7167 -60.4667 221° Southwest 460 529 36,300 805 Climbing Gander Center
Sat 12:19:14 PM 54.6667 -60.6833 248° West 460 529 37,100 735 Climbing Gander Center
Sat 12:19:52 PM 54.6333 -60.8167 247° West 460 529 37,500 490 Climbing Gander Center
Sat 12:20:52 PM 54.5833 -61.0167 247° West 460 529 37,900 250 Climbing Gander Center
Sat 12:21:52 PM 54.5333 -61.2167 247° West 470 541 38,000 50 Climbing Gander Center
Sat 12:22:52 PM 54.4667 -61.4333 242° Southwest 470 541 38,000  Level Gander Center
Sat 12:23:14 PM 54.4500 -61.5167 251° West 470 541 38,000  Level Gander Center
Sat 12:24:14 PM 54.4000 -61.6833 243° Southwest 470 541 38,000  Level Gander Center
Sat 12:25:14 PM 54.3500 -61.9167 250° West 470 541 38,000  Level Gander Center
Sat 12:26:14 PM 54.2833 -62.1167 240° Southwest 470 541 38,000  Level Gander Center
Sat 12:26:52 PM 54.2500 -62.2333 244° Southwest 470 541 38,000  Level Gander Center
Sat 12:27:52 PM 54.2000 -62.4167 245° Southwest 470 541 38,000  Level Gander Center
Sat 12:28:14 PM 54.1833 -62.5167 254° West 470 541 38,000  Level Gander Center
Sat 12:29:14 PM 54.1167 -62.7000 238° Southwest 470 541 38,000  Level Gander Center
Sat 12:29:52 PM 54.0833 -62.8167 244° Southwest 470 541 38,000  Level Gander Center
Sat 12:30:52 PM 54.0167 -63.0500 244° Southwest 470 541 38,000  Level Gander Center
Sat 12:31:52 PM 53.9667 -63.2167 243° Southwest 470 541 38,000  Level Gander Center
Sat 12:32:52 PM 53.9167 -63.4333 249° West 470 541 38,000  Level Gander Center
Sat 12:33:52 PM 53.8333 -63.6333 235° Southwest 470 541 38,000  Level Gander Center
Sat 12:34:52 PM 53.7833 -63.8333 247° West 470 541 38,000  Level Gander Center
Sat 12:35:52 PM 53.7333 -64.0167 245° Southwest 470 541 38,000  Level Gander Center
Sat 12:36:52 PM 53.6833 -64.2167 247° West 480 552 38,000  Level Gander Center
Sat 12:37:52 PM 53.6000 -64.4333 237° Southwest 480 552 38,000  Level Gander Center
Sat 12:38:52 PM 53.5500 -64.6333 247° West 480 552 38,000  Level Gander Center
Sat 12:39:52 PM 53.4833 -64.8167 239° Southwest 480 552 38,000  Level Gander Center
Sat 12:40:52 PM 53.4167 -65.0167 241° Southwest 480 552 38,000  Level Gander Center
Sat 12:41:52 PM 53.3500 -65.2333 243° Southwest 480 552 38,000  Level Gander Center
Sat 12:42:52 PM 53.3000 -65.4167 246° West 490 564 38,000  Level Gander Center
Sat 12:43:52 PM 53.2333 -65.6333 243° Southwest 490 564 38,000  Level Gander Center
Sat 12:44:52 PM 53.1667 -65.8333 241° Southwest 480 552 38,000  Level Gander Center
Sat 12:45:52 PM 53.1000 -66.0167 239° Southwest 480 552 38,000  Level Gander Center
Sat 12:46:52 PM 53.0500 -66.2000 246° West 470 541 38,000  Level Gander Center
Sat 12:47:52 PM 52.9667 -66.4000 235° Southwest 480 552 38,000  Level Gander Center
Sat 12:48:43 PM 52.9167 -66.5333 238° Southwest 470 541 38,000  Level Montreal Center
Sat 12:49:43 PM 52.8667 -66.7167 246° West 480 552 38,000  Level Montreal Center
Sat 12:50:43 PM 52.7833 -66.9000 233° Southwest 480 552 38,000  Level Montreal Center
Sat 12:51:43 PM 52.7167 -67.0833 239° Southwest 470 541 38,000  Level Montreal Center
Sat 12:52:43 PM 52.6667 -67.2833 248° West 470 541 38,000  Level Montreal Center
Sat 12:53:43 PM 52.6000 -67.4667 239° Southwest 480 552 38,000  Level Montreal Center
Sat 12:54:43 PM 52.5333 -67.6833 243° Southwest 470 541 38,000  Level Montreal Center
Sat 12:55:43 PM 52.4500 -67.8500 231° Southwest 470 541 38,000  Level Montreal Center
Sat 12:56:43 PM 52.4000 -68.0667 249° West 470 541 38,000  Level Montreal Center
Sat 12:57:43 PM 52.3333 -68.2333 237° Southwest 470 541 38,000  Level Montreal Center
Sat 12:58:43 PM 52.2667 -68.4167 239° Southwest 470 541 38,000  Level Montreal Center
Sat 12:59:43 PM 52.2000 -68.6000 239° Southwest 470 541 38,000  Level Montreal Center
Sat 01:00:43 PM 52.1167 -68.7667 231° Southwest 460 529 38,000  Level Montreal Center
Sat 01:01:43 PM 52.0333 -68.9500 234° Southwest 470 541 38,000  Level Montreal Center
Sat 01:02:43 PM 51.9667 -69.1333 240° Southwest 480 552 38,000  Level Montreal Center
Sat 01:03:43 PM 51.8833 -69.3000 231° Southwest 470 541 38,000  Level Montreal Center
Sat 01:04:43 PM 51.8167 -69.4833 240° Southwest 470 541 38,000  Level Montreal Center
Sat 01:05:43 PM 51.7333 -69.6500 231° Southwest 480 552 38,000  Level Montreal Center
Sat 01:06:43 PM 51.6667 -69.8333 240° Southwest 480 552 38,000  Level Montreal Center
Sat 01:07:43 PM 51.5667 -70.0000 226° Southwest 480 552 38,000  Level Montreal Center
Sat 01:08:43 PM 51.5000 -70.1833 240° Southwest 460 529 38,000  Level Montreal Center
Sat 01:09:43 PM 51.4167 -70.3500 231° Southwest 470 541 38,000  Level Montreal Center
Sat 01:10:43 PM 51.3500 -70.5167 237° Southwest 480 552 38,000  Level Montreal Center
Sat 01:11:43 PM 51.2667 -70.7167 236° Southwest 480 552 38,000  Level Montreal Center
Sat 01:12:43 PM 51.2000 -70.8833 237° Southwest 480 552 38,000  Level Montreal Center
Sat 01:13:43 PM 51.1333 -71.0500 238° Southwest 480 552 38,000  Level Montreal Center
Sat 01:14:43 PM 51.0500 -71.2167 232° Southwest 480 552 38,000  Level Montreal Center
Sat 01:20:40 PM 50.6060 -72.2840 232° Southwest 479 551 38,000  Level FlightAware ADS-B
Sat 01:21:43 PM 50.5360 -72.4350 234° Southwest 479 551 38,000  Level FlightAware ADS-B
Sat 01:22:22 PM 50.4930 -72.5280 234° Southwest 479 551 38,000  Level FlightAware ADS-B
Sat 01:23:14 PM 50.4080 -72.7230 236° Southwest 475 547 38,000  Level FlightAware ADS-B
Sat 01:24:16 PM 50.3460 -72.8560 234° Southwest 474 545 38,000  Level FlightAware ADS-B
Sat 01:24:52 PM 50.3070 -72.9410 234° Southwest 474 545 38,000  Level FlightAware ADS-B
Sat 01:25:42 PM 50.2520 -73.0590 234° Southwest 474 545 38,000  Level FlightAware ADS-B
Sat 01:26:18 PM 50.2120 -73.1440 234° Southwest 474 545 38,000  Level FlightAware ADS-B
Sat 01:27:05 PM 50.1610 -73.2550 234° Southwest 474 545 38,000  Level FlightAware ADS-B
Sat 01:27:42 PM 50.1200 -73.3420 234° Southwest 474 545 38,000  Level FlightAware ADS-B
Sat 01:28:28 PM 50.0700 -73.4500 234° Southwest 474 545 38,000  Level FlightAware ADS-B
Sat 01:28:43 PM 49.9833 -73.6167 234° Southwest 460 529 38,000  Level Montreal Center
Sat 01:29:43 PM 49.9167 -73.7667 235° Southwest 460 529 38,000  Level Montreal Center
Sat 01:30:43 PM 49.8333 -73.9333 232° Southwest 460 529 38,000  Level Montreal Center
Sat 01:31:43 PM 49.7500 -74.0833 229° Southwest 460 529 38,000  Level Montreal Center
Sat 01:32:43 PM 49.7000 -74.2500 245° Southwest 460 529 38,000  Level Montreal Center
Sat 01:33:43 PM 49.6167 -74.4167 232° Southwest 460 529 38,000  Level Montreal Center
Sat 01:34:43 PM 49.5333 -74.5667 229° Southwest 460 529 38,000  Level Montreal Center
Sat 01:35:43 PM 49.4500 -74.7167 230° Southwest 470 541 38,000  Level Montreal Center
Sat 01:36:43 PM 49.3667 -74.8833 233° Southwest 460 529 38,000  Level Montreal Center
Sat 01:37:43 PM 49.3000 -75.0667 241° Southwest 460 529 38,000  Level Montreal Center
Sat 01:38:43 PM 49.2167 -75.2000 226° Southwest 460 529 38,000  Level Montreal Center
Sat 01:39:43 PM 49.1333 -75.3833 235° Southwest 470 541 38,000  Level Montreal Center
Sat 01:41:00 PM 49.0344 -75.5815 233° Southwest  Level FlightAware Approximate
Sat 01:41:43 PM 48.9833 -75.6833 233° Southwest 470 541 38,000  Level Montreal Center
Sat 01:42:43 PM 48.9000 -75.8333 230° Southwest 470 541 38,000  Level Montreal Center
Sat 01:43:43 PM 48.8167 -76.0000 233° Southwest 460 529 38,000  Level Montreal Center
Sat 01:44:43 PM 48.7333 -76.1500 230° Southwest 460 529 38,000  Level Montreal Center
Sat 01:45:43 PM 48.6667 -76.3000 236° Southwest 450 518 38,000  Level Montreal Center
Sat 01:46:43 PM 48.5833 -76.4500 230° Southwest 450 518 38,000  Level Montreal Center
Sat 01:47:43 PM 48.5000 -76.6000 230° Southwest 460 529 38,000  Level Montreal Center
Sat 01:53:35 PM 48.0330 -77.4930 230° Southwest 477 549 38,000  Level FlightAware ADS-B
Sat 01:54:17 PM 47.9730 -77.6020 231° Southwest 476 548 38,000  Level FlightAware ADS-B
Sat 01:55:00 PM 47.9140 -77.7110 231° Southwest 473 544 38,000  Level FlightAware ADS-B
Sat 01:56:00 PM 47.8360 -77.8510 230° Southwest 473 544 38,000  Level FlightAware ADS-B
Sat 01:56:36 PM 47.7930 -77.9270 230° Southwest 473 544 38,000  Level FlightAware ADS-B
Sat 01:57:23 PM 47.7370 -78.0270 230° Southwest 473 544 38,000  Level FlightAware ADS-B
Sat 01:58:05 PM 47.6680 -78.1550 231° Southwest 450 518 38,000  Level FlightAware ADS-B
Sat 01:58:41 PM 47.6270 -78.2280 230° Southwest 450 518 38,000  Level FlightAware ADS-B
Sat 01:59:29 PM 47.5720 -78.3240 230° Southwest 450 518 38,000  Level FlightAware ADS-B
Sat 02:00:06 PM 47.5300 -78.3980 230° Southwest 450 518 38,000  Level FlightAware ADS-B
Sat 02:01:09 PM 47.4580 -78.5250 230° Southwest 450 518 38,000  Level FlightAware ADS-B
Sat 02:01:45 PM 47.4170 -78.5970 230° Southwest 450 518 38,000  Level FlightAware ADS-B
Sat 02:02:30 PM 47.3660 -78.6870 230° Southwest 450 518 38,000  Level FlightAware ADS-B
Sat 02:07:16 PM 46.9300 -79.4480 230° Southwest 453 521 38,000  Level FlightAware ADS-B
Sat 02:08:16 PM 46.8510 -79.5830 229° Southwest 452 520 38,000  Level FlightAware ADS-B
Sat 02:08:41 PM 46.8150 -79.6450 230° Southwest 451 519 38,000  Level FlightAware ADS-B
Sat 02:09:28 PM 46.7530 -79.7490 229° Southwest 451 519 38,000  Level FlightAware ADS-B
Sat 02:10:06 PM 46.6980 -79.8430 230° Southwest 451 519 38,000  Level FlightAware ADS-B
Sat 02:10:51 PM 46.6350 -79.9480 229° Southwest 452 520 38,000  Level FlightAware ADS-B
Sat 02:11:35 PM 46.6020 -80.0040 229° Southwest 452 520 38,000  Level FlightAware ADS-B
Sat 02:12:11 PM 46.5270 -80.1300 229° Southwest 452 520 38,000  Level FlightAware ADS-B
Sat 02:13:13 PM 46.4600 -80.2410 229° Southwest 448 516 38,000  Level FlightAware ADS-B
Sat 02:13:52 PM 46.3900 -80.3570 229° Southwest 446 513 38,000  Level FlightAware ADS-B
Sat 02:14:31 PM 46.3360 -80.4470 229° Southwest 445 512 38,000  Level FlightAware ADS-B
Sat 02:15:16 PM 46.2780 -80.5420 229° Southwest 444 511 38,000  Level FlightAware ADS-B
Sat 02:15:56 PM 46.2260 -80.6270 229° Southwest 444 511 38,000  Level FlightAware ADS-B
Sat 02:16:59 PM 46.1420 -80.7640 229° Southwest 442 509 38,000  Level FlightAware ADS-B
Sat 02:17:36 PM 46.0850 -80.8570 229° Southwest 442 509 38,000  Level FlightAware ADS-B
Sat 02:18:16 PM 46.0320 -80.9430 228° Southwest 442 509 38,000  Level FlightAware ADS-B
Sat 02:19:01 PM 45.9700 -81.0430 228° Southwest 442 509 38,000  Level FlightAware ADS-B
Sat 02:19:41 PM 45.9160 -81.1310 229° Southwest 443 510 38,000  Level FlightAware ADS-B
Sat 02:20:21 PM 45.8590 -81.2220 228° Southwest 444 511 38,000  Level FlightAware ADS-B
Sat 02:21:01 PM 45.8120 -81.2970 228° Southwest 443 510 38,000  Level FlightAware ADS-B
Sat 02:21:51 PM 45.7390 -81.4140 228° Southwest 441 507 38,000  Level FlightAware ADS-B
Sat 02:22:31 PM 45.6810 -81.5050 228° Southwest 439 505 38,000  Level FlightAware ADS-B
Sat 02:23:30 PM 45.6200 -81.6030 228° Southwest 439 505 38,000  Level FlightAware ADS-B
Sat 02:24:09 PM 45.5470 -81.7170 228° Southwest 439 505 38,000  Level FlightAware ADS-B
Sat 02:24:46 PM 45.5150 -81.7670 228° Southwest 439 505 38,000  Level FlightAware ADS-B
Sat 02:25:45 PM 45.4170 -81.9220 228° Southwest 440 506 38,000  Level FlightAware ADS-B
Sat 02:26:29 PM 45.3590 -82.0130 228° Southwest 441 507 38,000  Level FlightAware ADS-B
Sat 02:27:12 PM 45.3000 -82.1030 227° Southwest 442 509 38,000  Level FlightAware ADS-B
Sat 02:27:55 PM 45.2370 -82.2010 228° Southwest 446 513 38,000  Level FlightAware ADS-B
Sat 02:28:35 PM 45.1820 -82.2870 228° Southwest 448 516 38,000  Level FlightAware ADS-B
Sat 02:29:13 PM 45.1270 -82.3710 227° Southwest 448 516 38,000  Level FlightAware ADS-B
Sat 02:29:58 PM 45.0650 -82.4660 227° Southwest 446 513 38,000  Level FlightAware ADS-B
Sat 02:30:41 PM 45.0060 -82.5570 227° Southwest 443 510 38,000  Level FlightAware ADS-B
Sat 02:31:22 PM 44.9530 -82.6460 230° Southwest 434 499 38,000  Level FlightAware ADS-B
Sat 02:31:59 PM 44.9190 -82.7140 235° Southwest 431 496 38,000  Level FlightAware ADS-B
Sat 02:32:49 PM 44.8550 -82.8490 236° Southwest 427 491 38,000  Level FlightAware ADS-B
Sat 02:33:30 PM 44.8110 -82.9440 237° Southwest 424 488 38,000  Level FlightAware ADS-B
Sat 02:34:13 PM 44.7640 -83.0420 236° Southwest 422 486 38,000  Level FlightAware ADS-B
Sat 02:34:53 PM 44.7210 -83.1340 237° Southwest 423 487 38,000  Level FlightAware ADS-B
Sat 02:35:36 PM 44.6740 -83.2320 236° Southwest 424 488 38,000  Level FlightAware ADS-B
Sat 02:36:19 PM 44.6280 -83.3290 236° Southwest 424 488 38,000  Level FlightAware ADS-B
Sat 02:37:01 PM 44.5810 -83.4270 236° Southwest 425 489 38,000  Level FlightAware ADS-B
Sat 02:37:39 PM 44.5410 -83.5100 236° Southwest 425 489 38,000  Level FlightAware ADS-B
Sat 02:38:24 PM 44.4920 -83.6110 236° Southwest 427 491 38,000  Level FlightAware ADS-B
Sat 02:39:05 PM 44.4440 -83.7100 236° Southwest 429 494 38,000  Level FlightAware ADS-B
Sat 02:39:49 PM 44.3960 -83.8100 236° Southwest 431 496 38,000 -245 Level FlightAware ADS-B
Sat 02:40:43 PM 44.3350 -83.9350 236° Southwest 434 499 37,600 -1,000 Descending FlightAware ADS-B
Sat 02:41:25 PM 44.2860 -84.0350 236° Southwest 444 511 36,400 -1,116 Descending FlightAware ADS-B
Sat 02:42:09 PM 44.2360 -84.1360 235° Southwest 446 513 36,000 -286 Descending FlightAware ADS-B
Sat 02:42:49 PM 44.1890 -84.2320 236° Southwest 447 514 36,000  Level FlightAware ADS-B
Sat 02:43:26 PM 44.1460 -84.3190 235° Southwest 448 516 36,000 -143 Level FlightAware ADS-B
Sat 02:44:13 PM 44.0910 -84.4290 235° Southwest 447 514 35,800 -733 Descending FlightAware ADS-B
Sat 02:44:56 PM 44.0390 -84.5330 235° Southwest 454 522 34,900 -931 Descending FlightAware ADS-B
Sat 02:46:09 PM 43.9660 -84.6790 235° Southwest 457 526 34,000 -923 Descending FlightAware ADS-B
Sat 02:46:53 PM 43.8990 -84.8130 235° Southwest 460 529 33,100 -1,023 Descending FlightAware ADS-B
Sat 02:47:37 PM 43.8450 -84.9210 235° Southwest 461 531 32,500 -651 Descending FlightAware ADS-B
Sat 02:48:16 PM 43.7970 -85.0140 234° Southwest 456 525 32,200 -366 Descending FlightAware ADS-B
Sat 02:48:59 PM 43.7450 -85.1170 235° Southwest 455 524 32,000 -138 Descending FlightAware ADS-B
Sat 02:49:43 PM 43.6810 -85.2090 226° Southwest 470 541 32,000  Level FlightAware ADS-B
Sat 02:50:20 PM 43.6030 -85.2450 198° South 489 563 32,000  Level FlightAware ADS-B
Sat 02:51:05 PM 43.5040 -85.2750 192° South 491 565 32,000  Level FlightAware ADS-B
Sat 02:51:48 PM 43.4130 -85.3180 199° South 478 550 32,000  Level FlightAware ADS-B
Sat 02:52:30 PM 43.3460 -85.4020 222° Southwest 461 531 32,000  Level FlightAware ADS-B
Sat 02:53:13 PM 43.2940 -85.5060 236° Southwest 459 528 32,000 -289 Level FlightAware ADS-B
Sat 02:53:53 PM 43.2460 -85.6020 236° Southwest 452 520 31,600 -1,518 Descending FlightAware ADS-B
Sat 02:54:36 PM 43.1960 -85.7000 235° Southwest 444 511 29,900 -1,714 Descending FlightAware ADS-B
Sat 02:55:17 PM 43.1470 -85.7950 235° Southwest 444 511 29,200 -1,059 Descending FlightAware ADS-B
Sat 02:56:01 PM 43.0960 -85.8950 235° Southwest 436 502 28,400 -1,571 Descending FlightAware ADS-B
Sat 02:56:41 PM 43.0500 -85.9840 235° Southwest 425 489 27,000 -2,025 Descending FlightAware ADS-B
Sat 02:57:21 PM 43.0060 -86.0680 234° Southwest 416 479 25,700 -1,875 Descending FlightAware ADS-B
Sat 02:58:01 PM 42.9630 -86.1510 235° Southwest 405 466 24,500 -1,281 Descending FlightAware ADS-B
Sat 02:58:50 PM 42.9080 -86.2560 234° Southwest 408 470 23,800 -1,213 Descending FlightAware ADS-B
Sat 02:59:30 PM 42.8670 -86.3350 235° Southwest 398 458 22,700 -2,071 Descending FlightAware ADS-B
Sat 03:00:14 PM 42.8180 -86.4280 234° Southwest 397 457 20,900 -2,520 Descending FlightAware ADS-B
Sat 03:01:10 PM 42.7620 -86.5340 234° Southwest 405 466 18,500 -2,673 Descending FlightAware ADS-B
Sat 03:02:04 PM 42.6980 -86.6560 235° Southwest 402 463 16,000 -2,681 Descending FlightAware ADS-B
Sat 03:02:44 PM 42.6560 -86.7350 234° Southwest 393 452 14,300 -2,571 Descending FlightAware ADS-B
Sat 03:03:28 PM 42.6110 -86.8210 235° Southwest 388 447 12,400 -2,317 Descending FlightAware ADS-B
Sat 03:04:25 PM 42.5520 -86.9310 234° Southwest 373 429 10,400 -1,694 Descending FlightAware ADS-B
Sat 03:04:53 PM 42.5240 -86.9840 234° Southwest 371 427 10,000 -444 Descending FlightAware ADS-B
Sat 03:05:19 PM 42.4960 -87.0350 233° Southwest 373 429 10,000  Level FlightAware ADS-B
Sat 03:05:29 PM 42.4870 -87.0530 236° Southwest 373 429 10,000  Level FlightAware ADS-B
Sat 03:06:03 PM 42.4560 -87.1160 236° Southwest 344 396 10,000 -103 Level FlightAware ADS-B
Sat 03:06:27 PM 42.4410 -87.1620 246° West 308 354 9,900 -429 Descending FlightAware ADS-B
Sat 03:06:59 PM 42.4260 -87.2180 250° West 294 338 9,600 -545 Descending FlightAware ADS-B
Sat 03:07:22 PM 42.4190 -87.2450 251° West 293 337 9,400 -750 Descending FlightAware ADS-B
Sat 03:07:39 PM 42.4060 -87.2850 246° West 295 339 9,100 -727 Descending FlightAware ADS-B
Sat 03:07:55 PM 42.3880 -87.3050 219° Southwest 297 342 9,000 -207 Descending FlightAware ADS-B
Sat 03:08:08 PM 42.3710 -87.3120 197° South 298 343 9,000  Level FlightAware ADS-B
Sat 03:08:14 PM 42.3630 -87.3120 180° South 298 343 9,000  Level FlightAware ADS-B
Sat 03:08:50 PM 42.3130 -87.3090 177° South 301 346 9,000  Level FlightAware ADS-B
Sat 03:09:06 PM 42.2900 -87.3080 178° South 300 345 9,000  Level FlightAware ADS-B
Sat 03:09:28 PM 42.2600 -87.3060 177° South 297 342 9,000 -115 Level FlightAware ADS-B
Sat 03:09:58 PM 42.2190 -87.3040 178° South 295 339 8,900 -689 Descending FlightAware ADS-B
Sat 03:10:29 PM 42.1780 -87.3010 177° South 291 335 8,300 -1,154 Descending FlightAware ADS-B
Sat 03:10:50 PM 42.1490 -87.2990 177° South 285 328 7,900 -1,241 Descending FlightAware ADS-B
Sat 03:10:58 PM 42.1390 -87.2990 180° South 284 327 7,700 -1,200 Descending FlightAware ADS-B
Sat 03:11:45 PM 42.0790 -87.2950 177° South 275 316 6,800 -1,280 Descending FlightAware ADS-B
Sat 03:12:13 PM 42.0430 -87.2910 175° South 275 316 6,100 -1,099 Descending FlightAware ADS-B
Sat 03:12:56 PM 41.9950 -87.3030 191° South 241 277 5,500 -947 Descending FlightAware ADS-B
Sat 03:13:10 PM 41.9850 -87.3220 235° Southwest 231 266 5,200 -682 Descending FlightAware ADS-B
Sat 03:13:40 PM 41.9810 -87.3610 262° West 218 251 5,000 -214 Descending FlightAware ADS-B
Sat 03:14:06 PM 41.9820 -87.3960 272° West 214 246 5,000  Level FlightAware ADS-B
Sat 03:14:36 PM 41.9830 -87.4360 272° West 212 244 5,000  Level FlightAware ADS-B
Sat 03:15:18 PM 41.9830 -87.4920 270° West 212 244 5,000 -87 Level FlightAware ADS-B
Sat 03:15:45 PM 41.9840 -87.5280 272° West 212 244 4,900  Descending FlightAware ADS-B
Sat 03:16:09 PM 41.9830 -87.5570 267° West 211 243 5,000 -265 Climbing FlightAware ADS-B
Sat 03:16:53 PM 41.9830 -87.6170 270° West 212 244 4,600 -870 Descending FlightAware ADS-B
Sat 03:17:18 PM 41.9840 -87.6510 272° West 212 244 4,000 -1,241 Descending FlightAware ADS-B
Sat 03:17:51 PM 41.9830 -87.6900 268° West 208 239 3,400 -814 Descending FlightAware ADS-B
Sat 03:18:17 PM 41.9840 -87.7230 272° West 189 217 3,200 -982 Descending FlightAware ADS-B
Sat 03:18:46 PM 41.9840 -87.7570 270° West 181 208 2,500 -1,220 Descending FlightAware ADS-B
Sat 03:19:16 PM 41.9840 -87.7910 270° West 160 184 2,000 -923 Descending FlightAware ADS-B
Sat 03:19:38 PM 41.9840 -87.8110 270° West 138 159 1,700 -714 Descending FlightAware ADS-B
Sat 03:19:58 PM 41.9840 -87.8280 270° West 135 155 1,500 -714 Descending FlightAware ADS-B
Sat 03:20:20 PM 41.9840 -87.8450 270° West 138 159 1,200 -764 Descending FlightAware ADS-B
Sat 03:20:53 PM 41.9840 -87.8740 270° West 137 158 800 -655 Descending FlightAware ADS-B
Sat 03:21:15 PM 41.9840 -87.8930 270° West 141 162 600 -545 Descending FlightAware ADS-B
Sat 03:21:36 PM 41.9840 -87.9080 270° West 84 97 -1,714 Descending FlightAware ADS-B
Sat 03:22:16 PM 41.9840 -87.9160 270° West 17 20  Level FlightAware ADS-B
Sat 03:22:31 PM 41.9830 -87.9160 180° South 24 28  Level FlightAware ADS-B
Sat 03:22:59 PM 41.9820 -87.9150 143° Southeast 28 32  Level FlightAware ADS-B
Sat 03:23:25 PM 41.9810 -87.9130 124° Southeast 16 18  Level FlightAware ADS-B
Sat 03:23:39 PM 41.9810 -87.9120 90° East 23 26  Level FlightAware ADS-B

Login

Don't have an account? Register now (free) for customized features, flight alerts, and more!